Friday, September 21, 2018, 5:55 PM EDT
Back to Local

KPVD, Providence Green State Airport

Location: Warwick, RI, United States Lat: 41.733
Local Time: 5:55 PM EDT (21:55 GMT) Lon: -71.433
Time Zone: US/Eastern Elev: 55 ft

Show me the last for .
Show Decoded

2018-09-21 16:51 METAR KPVD 212051Z 19012KT 10SM FEW025 BKN048 19/14 A3012 RMK AO2 SLP201
                 T01940139 56026 =
2018-09-21 15:51 METAR KPVD 211951Z 19010KT 10SM FEW030 BKN055 19/14 A3015 RMK AO2 SLP211
                 T01940139 =
2018-09-21 14:51 METAR KPVD 211851Z 16013KT 10SM FEW035 BKN055 20/13 A3017 RMK AO2 SLP216
                 T02000133 =
2018-09-21 13:51 METAR KPVD 211751Z 16011KT 10SM SCT030 BKN050 20/13 A3020 RMK AO2 SLP227
                 T02000128 10206 20161 58023 =
2018-09-21 12:51 METAR KPVD 211651Z 18011KT 10SM SCT030 SCT085 20/12 A3022 RMK AO2 SLP235
                 T02000122 =
2018-09-21 11:51 METAR KPVD 211551Z 15011KT 10SM SCT025 19/12 A3025 RMK AO2 SLP244 T01940122 =
2018-09-21 10:51 METAR KPVD 211451Z 18010KT 10SM SCT060 SCT250 19/13 A3027 RMK AO2 SLP250
                 T01940128 58016 =
2018-09-21 09:51 METAR KPVD 211351Z 15011KT 10SM FEW085 19/13 A3029 RMK AO2 SLP256 T01890128 =
2018-09-21 08:51 METAR KPVD 211251Z 14008KT 10SM FEW020 FEW065 18/13 A3031 RMK AO2 SLP264
                 T01780128 =
2018-09-21 07:51 METAR KPVD 211151Z 11003KT 10SM FEW010 FEW050 FEW300 16/13 A3031 RMK AO2 SLP265
                 T01610133 10161 20139 50009 =
2018-09-21 06:51 METAR KPVD 211051Z 00000KT 10SM FEW007 BKN049 BKN300 15/13 A3032 RMK AO2 SLP266
                 T01500128 =
2018-09-21 05:51 METAR KPVD 210951Z 01003KT 10SM SCT048 SCT110 BKN140 15/13 A3030 RMK AO2 SLP259
                 T01500128 =
2018-09-21 04:51 METAR KPVD 210851Z 10004KT 10SM BKN050 14/13 A3029 RMK AO2 SLP257 T01440133
                 56004 =
2018-09-21 03:51 METAR KPVD 210751Z 00000KT 10SM SCT050 15/13 A3029 RMK AO2 SLP258 T01500133 =
2018-09-21 02:51 METAR KPVD 210651Z 06005KT 10SM CLR 15/13 A3029 RMK AO2 SLP258 T01500133 =
2018-09-21 01:51 METAR KPVD 210551Z 06004KT 10SM BKN050 15/14 A3030 RMK AO2 SLP260 T01500139
                 10167 20150 58001 =
2018-09-21 00:51 METAR KPVD 210451Z 00000KT 10SM OVC050 16/13 A3031 RMK AO2 SLP263 T01610133
                 402110144 =
2018-09-20 23:51 METAR KPVD 210351Z 14003KT 10SM FEW055 SCT170 BKN220 16/13 A3030 RMK AO2 SLP261
                 LAST T01560133 =
2018-09-20 22:51 METAR KPVD 210251Z 09003KT 10SM BKN055 16/13 A3030 RMK AO2 SLP261 T01560133
                 50006 =
2018-09-20 21:51 METAR KPVD 210151Z 07004KT 10SM OVC050 16/13 A3031 RMK AO2 SLP264 T01610133 =
2018-09-20 20:51 METAR KPVD 210051Z 07006KT 10SM OVC049 16/13 A3030 RMK AO2 SLP261 T01610133 =
2018-09-20 19:51 METAR KPVD 202351Z 07006KT 10SM OVC049 17/14 A3028 RMK AO2 SLP255 T01670139
                 10200 20167 53010 =
2018-09-20 18:51 METAR KPVD 202251Z 05007KT 10SM FEW020 SCT050 BKN250 17/13 A3027 RMK AO2 SLP251
                 T01670133 =

Support USWX by starting your Amazon purchase here.